• Join FlightAware (Why Join?)
  • Login
  • US Flag 
12:47AM EDT


 

Airport Tracker/Info


-or-


 

Live Flight TrackerFlight Track Log ✈ ASQ5025 ✈ 30-Apr-2013 ✈ KBTV - KLGA

Flight Track Log - Related Links

Times and Time Zones

All times are in EDT time to prevent confusion due to time zone crossing. See the ASQ5025 flight status page for this flight to view local times or setup timezone preferences in your user account.

Time Position Orientation Groundspeed Altitude Reporting Facility
EDT Latitude Longitude Course Direction KTS MPH feet Rate Location/Type
11:19AM 44.2378 -73.2167 196° South 425 489 10,500  Level Boston Center
11:20AM 44.1481 -73.2531 196° South 364 419 11,800 2,100 Climbing Boston Center
11:21AM 44.0372 -73.2978 196° South 364 419 14,800 3,000 Climbing Boston Center
11:22AM 43.9411 -73.3367 196° South 364 419 17,800 2,460 Climbing Boston Center
11:23AM 43.8428 -73.3756 196° South 364 419 19,700 1,800 Climbing Boston Center
11:24AM 44.0053 -73.3246 196° South  Level FlightAware Approximate
11:24AM 43.7406 -73.4172 196° South 377 434 21,500  Level Boston Center
11:25AM 43.6464 -73.4528 195° South 391 450 23,000 1,620 Climbing Boston Center
11:26AM 43.5333 -73.4969 196° South 403 464 24,800 960 Climbing Boston Center
11:27AM 43.4183 -73.5406 195° South 422 486 25,000 -180 Climbing Boston Center
11:28AM 43.2992 -73.5925 198° South 437 503 24,500 -540 Descending Boston Center
11:29AM 43.1797 -73.6358 195° South 443 510 24,000 -600 Descending Boston Center
11:30AM 43.0500 -73.6903 197° South 443 510 23,300 -780 Descending Boston Center
11:31AM 42.9350 -73.7361 196° South 438 504 22,500 -720 Descending Boston Center
11:32AM 42.8219 -73.7789 196° South 433 498 21,900 -660 Descending Boston Center
11:33AM 42.7092 -73.7992 188° South 423 487 21,200 -660 Descending Boston Center
11:34AM 42.6133 -73.7803 172° South 412 474 20,600 -660 Descending Boston Center
11:35AM 42.4803 -73.7547 172° South 417 480 19,900 -720 Descending Boston Center
11:36AM 42.3661 -73.7300 171° South 417 480 19,200 -720 Descending Boston Center
11:37AM 42.2536 -73.7050 171° South 417 480 18,500 -660 Descending Boston Center
11:38AM 42.1539 -73.6836 171° South 417 480 18,000 -300 Descending Boston Center
11:39AM 42.0311 -73.6586 171° South 412 474 18,000  Level Boston Center
11:40AM 41.9247 -73.6761 187° South 389 448 18,000 -180 Level Boston Center
11:41AM 41.8219 -73.7383 204° Southwest 403 464 17,700 -1,200 Descending Boston Center
11:42AM 41.7175 -73.7611 189° South 397 457 15,700 -2,340 Descending Boston Center
11:44AM 41.5333 -73.7833 185° South 340 391 11,100 -2,040 Descending New York TRACON
11:45AM 41.4500 -73.7833 180° South 299 344 9,900 -1,380 Descending New York TRACON
11:46AM 41.3833 -73.8000 191° South 286 329 8,400 -1,680 Descending New York TRACON
11:47AM 41.3167 -73.7667 159° South 275 316 6,800 -1,740 Descending New York TRACON
11:48AM 41.2500 -73.7167 151° Southeast 262 302 5,100 -1,380 Descending New York TRACON
11:49AM 41.1833 -73.6667 151° Southeast 255 293 4,100 -480 Descending New York TRACON
11:50AM 41.1167 -73.6500 169° South 260 299 4,100  Level New York TRACON
11:51AM 41.0500 -73.6667 191° South 262 302 4,100  Level New York TRACON
11:52AM 41.0000 -73.7333 225° Southwest 263 303 4,100  Level New York TRACON
11:53AM 40.9667 -73.8167 242° Southwest 267 307 4,100  Level New York TRACON
11:54AM 40.9167 -73.8833 225° Southwest 268 308 4,100  Level New York TRACON
11:55AM 40.8667 -73.9333 217° Southwest 221 254 4,100  Level New York TRACON
11:56AM 40.8167 -73.9667 207° Southwest 204 235 4,100  Level New York TRACON
11:57AM 40.7667 -74.0167 217° Southwest 213 245 4,100 -120 Level New York TRACON
11:58AM 40.7167 -74.0500 207° Southwest 220 253 3,900 -540 Descending New York TRACON
11:59AM 40.6667 -74.0833 207° Southwest 209 241 3,100 -660 Descending New York TRACON
12:00PM 40.6333 -74.0333 131° Southeast 198 228 2,600 -480 Descending New York TRACON
12:01PM 40.6667 -73.9833 49° Northeast 196 226 2,100 -420 Descending New York TRACON
12:02PM 40.7000 -73.9500 37° Northeast 183 211 1,900 -600 Descending New York TRACON
12:03PM 40.7333 -73.9167 37° Northeast 149 171 1,000 -840 Descending New York TRACON
12:04PM 40.7667 -73.8833 37° Northeast 122 140 300 -720 Descending New York TRACON